Aérodrome :
LOGIN :

S'inscrire | Disclaimer

   EN    FR    IT 

 










Légende :    VFR   VFR Marginal   IFR   IFR Intensif   IFR Très Intensif
Visi : 
Plafond : 
>= 8 km
>= 3000ft
5 à 8 km
1000 à 3000 ft
1500m à 5 km
500 à 1000 ft
800 à 1500m
200 à 500 ft
< 800m
< 200 ft
Symboles :   Orages  Brouillard  Fortes neiges  Fortes précipitations  Vent > 20 kt
SIGMETs :   Divers  Orages  Givrage  Turbulence  Onde Orograph.  Cendres Volcan.






- Altitude de l'aérodrome : 659 ft
- Code IATA : LGG


EBLG - Liège

DERNIER METAR :
  • 281220Z 03013KT CAVOK 13/02 Q1021 NOSIG

METARs EXPIRÉS :
  • 281150Z 03011KT 360V080 CAVOK 12/03 Q1021 NOSIG
  • 281120Z 02012KT CAVOK 12/03 Q1021 NOSIG
  • 281050Z 02011KT 350V060 CAVOK 12/03 Q1021 NOSIG
  • 281020Z 03011KT CAVOK 11/03 Q1021 NOSIG
  • 280950Z 04010KT 360V060 CAVOK 10/03 Q1021 NOSIG

TAF TAF EBLG
Valide du 28 à 12h jusqu'au 29 à 18h UTC


281102Z 2812/2918 04013KT 9999 SCT018
TEMPO 2818/2824 03015G25KT
PROB40
TEMPO 2903/2908 BKN010
PROB40
TEMPO 2908/2917 04020G33KT 4500 SHGS SCT009 BKN014TCU



MET'MAP, la Météo Aéronautique d'un coup d'oeil ! - Copyright ORBIFLY Décembre 2007 - Disclaimer

ORBIFLY MET'MAP TEAM :

Programmation & Développement : Alexandra Zaïnal
Sur une idée originale de : Baudouin d'Aumeries
Assistance à la programmation : Marc-Olivier Méhu
Soutien technique & logistique : Manuel Goepfert

Contact : metmap@orbifly.com




SOURCES & CREDITS :

   NOAA